Time,TemperatureF,DewpointF,PressureIn,WindDirection,WindDirectionDegrees,WindSpeedMPH,WindSpeedGustMPH,Humidity,HourlyPrecipIn,Conditions,Clouds,dailyrainin,SoftwareType,DateUTC
2013-03-29 00:03:00,40.0,32.0,-100.00,SSE,162,1.0,12.0,73,0.00,,,-99.99,,2013-03-29 04:03:00,
2013-03-29 00:13:00,37.0,30.0,-100.00,SE,142,0.0,12.0,75,0.00,,,-99.99,,2013-03-29 04:13:00,
2013-03-29 00:23:00,37.0,30.0,-100.00,SSE,151,1.0,12.0,75,0.00,,,-99.99,,2013-03-29 04:23:00,
2013-03-29 00:33:00,37.0,30.0,-100.00,SE,138,0.0,12.0,75,0.00,,,-99.99,,2013-03-29 04:33:00,
2013-03-29 00:43:00,37.0,30.0,-100.00,SE,142,0.0,12.0,75,0.00,,,-99.99,,2013-03-29 04:43:00,
2013-03-29 00:52:00,38.0,32.0,-100.00,SE,142,1.0,12.0,75,0.00,,,-99.99,,2013-03-29 04:52:00,
2013-03-29 01:03:00,37.0,30.0,-100.00,SE,135,1.0,12.0,75,0.00,,,-99.99,,2013-03-29 05:03:00,
2013-03-29 01:13:00,37.0,30.0,-100.00,SE,146,1.0,12.0,76,0.00,,,-99.99,,2013-03-29 05:13:00,
2013-03-29 01:23:00,37.0,30.0,-100.00,SE,145,1.0,12.0,76,0.00,,,-99.99,,2013-03-29 05:23:00,
2013-03-29 01:33:00,37.0,30.0,-100.00,SSE,159,2.0,12.0,76,0.00,,,-99.99,,2013-03-29 05:33:00,
2013-03-29 01:43:00,37.0,30.0,-100.00,SSE,159,1.0,12.0,76,0.00,,,-99.99,,2013-03-29 05:43:00,
2013-03-29 01:52:00,37.0,30.0,-100.00,SE,145,1.0,12.0,76,0.00,,,-99.99,,2013-03-29 05:52:00,
2013-03-29 02:02:00,37.0,30.0,-100.00,SSE,159,1.0,12.0,76,0.00,,,-99.99,,2013-03-29 06:02:00,
2013-03-29 02:13:00,37.0,30.0,-100.00,SSE,149,1.0,12.0,76,0.00,,,-99.99,,2013-03-29 06:13:00,
2013-03-29 02:23:00,37.0,30.0,-100.00,SSE,159,1.0,12.0,76,0.00,,,-99.99,,2013-03-29 06:23:00,
2013-03-29 02:32:00,37.0,30.0,-100.00,SSE,148,1.0,1.0,75,0.00,,,-99.99,,2013-03-29 06:32:00,
2013-03-29 02:42:00,37.0,30.0,-100.00,SSE,159,1.0,1.0,75,0.00,,,-99.99,,2013-03-29 06:42:00,
2013-03-29 02:52:00,37.0,32.0,-100.00,SE,134,1.0,1.0,76,0.00,,,-99.99,,2013-03-29 06:52:00,
2013-03-29 03:03:00,37.0,30.0,-100.00,SE,146,1.0,1.0,75,0.00,,,-99.99,,2013-03-29 07:03:00,
2013-03-29 03:12:00,37.0,30.0,-100.00,SSE,151,1.0,1.0,75,0.00,,,-99.99,,2013-03-29 07:12:00,
2013-03-29 03:22:00,37.0,30.0,-100.00,SE,132,1.0,1.0,75,0.00,,,-99.99,,2013-03-29 07:22:00,
2013-03-29 03:32:00,37.0,30.0,-100.00,SE,141,1.0,1.0,75,0.00,,,-99.99,,2013-03-29 07:32:00,
2013-03-29 03:42:00,37.0,30.0,-100.00,SSE,148,0.0,1.0,75,0.00,,,-99.99,,2013-03-29 07:42:00,
2013-03-29 03:52:00,37.0,30.0,-100.00,SE,136,1.0,1.0,75,0.00,,,-99.99,,2013-03-29 07:52:00,
2013-03-29 04:02:00,37.0,30.0,-100.00,ESE,112,1.0,1.0,73,0.00,,,-99.99,,2013-03-29 08:02:00,
2013-03-29 04:12:00,37.0,30.0,-100.00,SE,138,1.0,1.0,75,0.00,,,-99.99,,2013-03-29 08:12:00,
2013-03-29 04:22:00,37.0,30.0,-100.00,SE,139,1.0,1.0,75,0.00,,,-99.99,,2013-03-29 08:22:00,
2013-03-29 04:32:00,39.0,32.0,-100.00,East,88,1.0,1.0,75,0.00,,,-99.99,,2013-03-29 08:32:00,
2013-03-29 04:42:00,39.0,32.0,-100.00,SE,145,1.0,1.0,76,0.00,,,-99.99,,2013-03-29 08:42:00,
2013-03-29 04:52:00,37.0,30.0,-100.00,SE,124,1.0,1.0,75,0.00,,,-99.99,,2013-03-29 08:52:00,
2013-03-29 05:02:00,37.0,30.0,-100.00,SE,146,1.0,1.0,75,0.00,,,-99.99,,2013-03-29 09:02:00,
2013-03-29 05:13:00,37.0,30.0,-100.00,SSE,149,1.0,1.0,75,0.00,,,-99.99,,2013-03-29 09:13:00,
2013-03-29 05:22:00,39.0,32.0,-100.00,SE,136,1.0,1.0,76,0.00,,,-99.99,,2013-03-29 09:22:00,
2013-03-29 05:33:00,37.0,30.0,-100.00,SSE,148,1.0,1.0,75,0.00,,,-99.99,,2013-03-29 09:33:00,
2013-03-29 05:43:00,37.0,30.0,-100.00,ESE,117,1.0,1.0,73,0.00,,,-99.99,,2013-03-29 09:43:00,
2013-03-29 05:52:00,37.0,30.0,-100.00,SE,124,0.0,1.0,73,0.00,,,-99.99,,2013-03-29 09:52:00,
2013-03-29 06:03:00,37.0,30.0,-100.00,SSE,152,1.0,1.0,73,0.00,,,-99.99,,2013-03-29 10:03:00,
2013-03-29 06:12:00,37.0,30.0,-100.00,SSE,165,1.0,1.0,73,0.00,,,-99.99,,2013-03-29 10:12:00,
2013-03-29 06:23:00,37.0,30.0,-100.00,SE,145,1.0,1.0,75,0.00,,,-99.99,,2013-03-29 10:23:00,
2013-03-29 06:33:00,37.0,30.0,-100.00,SE,141,1.0,1.0,75,0.00,,,-99.99,,2013-03-29 10:33:00,
2013-03-29 06:42:00,37.0,30.0,-100.00,SSE,162,1.0,1.0,75,0.00,,,-99.99,,2013-03-29 10:42:00,
2013-03-29 06:53:00,36.0,30.0,-100.00,South,172,1.0,1.0,75,0.00,,,-99.99,,2013-03-29 10:53:00,
2013-03-29 07:04:00,37.0,30.0,-100.00,SSE,158,1.0,1.0,76,0.00,,,-99.99,,2013-03-29 11:04:00,
2013-03-29 07:12:00,37.0,30.0,-100.00,SE,144,0.0,1.0,76,0.00,,,-99.99,,2013-03-29 11:12:00,
2013-03-29 07:23:00,38.0,32.0,-100.00,ESE,105,0.0,1.0,77,0.00,,,-99.99,,2013-03-29 11:23:00,
2013-03-29 07:33:00,37.0,30.0,-100.00,East,88,0.0,1.0,76,0.00,,,-99.99,,2013-03-29 11:33:00,
2013-03-29 07:42:00,37.0,30.0,-100.00,East,86,0.0,1.0,77,0.00,,,-99.99,,2013-03-29 11:42:00,
2013-03-29 07:52:00,37.0,32.0,-100.00,ESE,110,1.0,1.0,77,0.00,,,-99.99,,2013-03-29 11:52:00,
2013-03-29 08:03:00,36.0,30.0,-100.00,ESE,122,1.0,1.0,76,0.00,,,-99.99,,2013-03-29 12:03:00,
2013-03-29 08:13:00,38.0,32.0,-100.00,SSE,163,1.0,1.0,76,0.00,,,-99.99,,2013-03-29 12:13:00,
2013-03-29 08:22:00,39.0,32.0,-100.00,South,189,1.0,1.0,77,0.00,,,-99.99,,2013-03-29 12:22:00,
2013-03-29 08:32:00,37.0,32.0,-100.00,South,180,2.0,2.0,76,0.00,,,-99.99,,2013-03-29 12:32:00,
2013-03-29 08:42:00,37.0,30.0,-100.00,South,169,1.0,2.0,76,0.00,,,-99.99,,2013-03-29 12:42:00,
2013-03-29 08:52:00,37.0,30.0,-100.00,SSE,155,1.0,2.0,76,0.00,,,-99.99,,2013-03-29 12:52:00,
2013-03-29 09:03:00,39.0,32.0,-100.00,SSE,159,1.0,2.0,77,0.00,,,-99.99,,2013-03-29 13:03:00,
2013-03-29 09:13:00,39.0,32.0,-100.00,SSE,165,1.0,2.0,77,0.00,,,-99.99,,2013-03-29 13:13:00,
2013-03-29 09:23:00,40.0,32.0,-100.00,SSW,196,2.0,4.0,77,0.00,,,-99.99,,2013-03-29 13:23:00,
2013-03-29 09:33:00,42.0,34.0,-100.00,SSW,197,4.0,6.0,75,0.00,,,-99.99,,2013-03-29 13:33:00,
2013-03-29 09:43:00,40.0,32.0,-100.00,SSW,197,5.0,6.0,72,0.00,,,-99.99,,2013-03-29 13:43:00,
2013-03-29 09:52:00,41.0,32.0,-100.00,South,190,6.0,8.0,72,0.00,,,-99.99,,2013-03-29 13:52:00,
2013-03-29 10:03:00,41.0,32.0,-100.00,SSW,197,6.0,8.0,71,0.00,,,-99.99,,2013-03-29 14:03:00,
2013-03-29 10:12:00,40.0,32.0,-100.00,SSW,199,7.0,10.0,69,0.00,,,-99.99,,2013-03-29 14:12:00,
2013-03-29 10:22:00,40.0,32.0,-100.00,South,182,6.0,10.0,68,0.00,,,-99.99,,2013-03-29 14:22:00,
2013-03-29 10:33:00,41.0,32.0,-100.00,SSW,200,7.0,10.0,69,0.00,,,-99.99,,2013-03-29 14:33:00,
2013-03-29 10:42:00,41.0,32.0,-100.00,South,177,7.0,10.0,67,0.00,,,-99.99,,2013-03-29 14:42:00,
2013-03-29 10:52:00,41.0,32.0,-100.00,South,184,8.0,10.0,66,0.00,,,-99.99,,2013-03-29 14:52:00,
2013-03-29 11:02:00,42.0,32.0,-100.00,SSW,213,7.0,10.0,64,0.00,,,-99.99,,2013-03-29 15:02:00,
2013-03-29 11:12:00,43.0,32.0,-100.00,South,177,6.0,10.0,62,0.00,,,-99.99,,2013-03-29 15:12:00,
2013-03-29 11:22:00,45.0,32.0,-100.00,SSW,208,6.0,10.0,59,0.00,,,-99.99,,2013-03-29 15:22:00,
2013-03-29 11:33:00,45.0,32.0,-100.00,WSW,240,4.0,10.0,58,0.00,,,-99.99,,2013-03-29 15:33:00,
2013-03-29 11:43:00,46.0,30.0,-100.00,WSW,255,5.0,10.0,53,0.00,,,-99.99,,2013-03-29 15:43:00,
2013-03-29 11:53:00,46.0,28.0,-100.00,WSW,237,4.0,10.0,47,0.00,,,-99.99,,2013-03-29 15:53:00,
2013-03-29 12:03:00,47.0,27.0,-100.00,SSW,208,6.0,10.0,44,0.00,,,-99.99,,2013-03-29 16:03:00,
2013-03-29 12:13:00,47.0,27.0,-100.00,SW,228,4.0,10.0,44,0.00,,,-99.99,,2013-03-29 16:13:00,
2013-03-29 12:23:00,47.0,27.0,-100.00,WSW,244,6.0,10.0,44,0.00,,,-99.99,,2013-03-29 16:23:00,
2013-03-29 12:33:00,48.0,23.0,-100.00,SW,224,5.0,10.0,37,0.00,,,-99.99,,2013-03-29 16:33:00,
2013-03-29 12:43:00,49.0,30.0,-100.00,SSW,200,6.0,10.0,47,0.00,,,-99.99,,2013-03-29 16:43:00,
2013-03-29 12:52:00,49.0,25.0,-100.00,West,268,6.0,10.0,38,0.00,,,-99.99,,2013-03-29 16:52:00,
2013-03-29 13:03:00,49.0,25.0,-100.00,SW,235,6.0,10.0,38,0.00,,,-99.99,,2013-03-29 17:03:00,
2013-03-29 13:12:00,48.0,23.0,-100.00,WSW,245,6.0,10.0,36,0.00,,,-99.99,,2013-03-29 17:12:00,
2013-03-29 13:23:00,49.0,27.0,-100.00,WSW,249,6.0,10.0,40,0.00,,,-99.99,,2013-03-29 17:23:00,
2013-03-29 13:33:00,47.0,23.0,-100.00,SW,225,8.0,12.0,36,0.00,,,-99.99,,2013-03-29 17:33:00,
2013-03-29 13:43:00,48.0,27.0,-100.00,SSW,199,7.0,12.0,42,0.00,,,-99.99,,2013-03-29 17:43:00,
2013-03-29 13:52:00,48.0,27.0,-100.00,West,273,6.0,12.0,42,0.00,,,-99.99,,2013-03-29 17:52:00,
2013-03-29 14:02:00,47.0,25.0,-100.00,SSW,201,6.0,12.0,40,0.00,,,-99.99,,2013-03-29 18:02:00,
2013-03-29 14:12:00,49.0,27.0,-100.00,SW,214,5.0,12.0,41,0.00,,,-99.99,,2013-03-29 18:12:00,
2013-03-29 14:23:00,47.0,23.0,-100.00,SSW,211,7.0,12.0,38,0.00,,,-99.99,,2013-03-29 18:23:00,
2013-03-29 14:32:00,47.0,28.0,-100.00,SSW,204,7.0,12.0,47,0.00,,,-99.99,,2013-03-29 18:32:00,
2013-03-29 14:42:00,47.0,27.0,-100.00,West,264,6.0,12.0,42,0.00,,,-99.99,,2013-03-29 18:42:00,
2013-03-29 14:52:00,47.0,27.0,-100.00,West,264,6.0,12.0,42,0.00,,,-99.99,,2013-03-29 18:52:00,
2013-03-29 15:03:00,48.0,28.0,-100.00,SW,232,5.0,12.0,46,0.00,,,-99.99,,2013-03-29 19:03:00,
2013-03-29 15:12:00,47.0,27.0,-100.00,SW,232,6.0,12.0,44,0.00,,,-99.99,,2013-03-29 19:12:00,
2013-03-29 15:23:00,48.0,25.0,-100.00,SW,220,6.0,12.0,40,0.00,,,-99.99,,2013-03-29 19:23:00,
2013-03-29 15:33:00,47.0,25.0,-100.00,WSW,251,5.0,12.0,41,0.00,,,-99.99,,2013-03-29 19:33:00,
2013-03-29 15:43:00,46.0,25.0,-100.00,South,189,6.0,12.0,42,0.00,,,-99.99,,2013-03-29 19:43:00,
2013-03-29 15:52:00,47.0,27.0,-100.00,South,182,6.0,12.0,44,0.00,,,-99.99,,2013-03-29 19:52:00,
2013-03-29 16:03:00,47.0,25.0,-100.00,WSW,255,7.0,12.0,41,0.00,,,-99.99,,2013-03-29 20:03:00,
2013-03-29 16:12:00,46.0,25.0,-100.00,SSW,206,7.0,12.0,40,0.00,,,-99.99,,2013-03-29 20:12:00,
2013-03-29 16:23:00,47.0,23.0,-100.00,SSW,206,7.0,12.0,36,0.00,,,-99.99,,2013-03-29 20:23:00,
2013-03-29 16:33:00,47.0,23.0,-100.00,WSW,255,5.0,12.0,36,0.00,,,-99.99,,2013-03-29 20:33:00,
2013-03-29 16:42:00,48.0,25.0,-100.00,SSW,204,4.0,12.0,40,0.00,,,-99.99,,2013-03-29 20:42:00,
2013-03-29 16:52:00,47.0,23.0,-100.00,South,175,5.0,12.0,36,0.00,,,-99.99,,2013-03-29 20:52:00,
2013-03-29 17:02:00,47.0,21.0,-100.00,WSW,258,7.0,12.0,36,0.00,,,-99.99,,2013-03-29 21:02:00,
2013-03-29 17:12:00,47.0,23.0,-100.00,West,266,7.0,12.0,36,0.00,,,-99.99,,2013-03-29 21:12:00,
2013-03-29 17:22:00,46.0,23.0,-100.00,West,269,6.0,12.0,38,0.00,,,-99.99,,2013-03-29 21:22:00,
2013-03-29 17:33:00,49.0,25.0,-100.00,South,169,4.0,12.0,38,0.00,,,-99.99,,2013-03-29 21:33:00,
2013-03-29 17:43:00,47.0,27.0,-100.00,West,275,6.0,12.0,42,0.00,,,-99.99,,2013-03-29 21:43:00,
2013-03-29 17:53:00,47.0,27.0,-100.00,SW,231,6.0,12.0,41,0.00,,,-99.99,,2013-03-29 21:53:00,
2013-03-29 18:03:00,47.0,25.0,-100.00,SSW,210,7.0,12.0,40,0.00,,,-99.99,,2013-03-29 22:03:00,
2013-03-29 18:13:00,48.0,27.0,-100.00,West,269,6.0,12.0,40,0.00,,,-99.99,,2013-03-29 22:13:00,
2013-03-29 18:23:00,48.0,25.0,-100.00,SW,224,4.0,12.0,37,0.00,,,-99.99,,2013-03-29 22:23:00,
2013-03-29 18:33:00,47.0,27.0,-100.00,SW,217,6.0,12.0,42,0.00,,,-99.99,,2013-03-29 22:33:00,
2013-03-29 18:42:00,47.0,27.0,-100.00,SE,125,5.0,12.0,44,0.00,,,-99.99,,2013-03-29 22:42:00,
2013-03-29 18:53:00,47.0,25.0,-100.00,SSW,197,5.0,12.0,42,0.00,,,-99.99,,2013-03-29 22:53:00,
2013-03-29 19:03:00,46.0,25.0,-100.00,SSW,207,4.0,12.0,40,0.00,,,-99.99,,2013-03-29 23:03:00,
2013-03-29 19:12:00,47.0,27.0,-100.00,SW,220,4.0,12.0,42,0.00,,,-99.99,,2013-03-29 23:12:00,
2013-03-29 19:22:00,46.0,25.0,-100.00,SW,216,3.0,12.0,42,0.00,,,-99.99,,2013-03-29 23:22:00,
2013-03-29 19:32:00,46.0,23.0,-100.00,SW,220,3.0,12.0,40,0.00,,,-99.99,,2013-03-29 23:32:00,
2013-03-29 19:42:00,46.0,25.0,-100.00,SSW,192,2.0,12.0,40,0.00,,,-99.99,,2013-03-29 23:42:00,
2013-03-29 19:52:00,45.0,23.0,-100.00,WSW,244,3.0,12.0,40,0.00,,,-99.99,,2013-03-29 23:52:00,
2013-03-29 20:03:00,44.0,25.0,-100.00,SW,225,3.0,12.0,44,0.00,,,-99.99,,2013-03-30 00:03:00,
2013-03-29 20:12:00,44.0,23.0,-100.00,SSW,213,1.0,12.0,42,0.00,,,-99.99,,2013-03-30 00:12:00,
2013-03-29 20:22:00,43.0,23.0,-100.00,SSW,204,1.0,12.0,44,0.00,,,-99.99,,2013-03-30 00:22:00,
2013-03-29 20:32:00,43.0,23.0,-100.00,SSW,192,1.0,12.0,42,0.00,,,-99.99,,2013-03-30 00:32:00,
2013-03-29 20:43:00,42.0,23.0,-100.00,SSE,166,1.0,12.0,44,0.00,,,-99.99,,2013-03-30 00:43:00,
2013-03-29 20:52:00,41.0,21.0,-100.00,SW,234,1.0,12.0,44,0.00,,,-99.99,,2013-03-30 00:52:00,
2013-03-29 21:03:00,41.0,23.0,-100.00,WSW,247,1.0,12.0,45,0.00,,,-99.99,,2013-03-30 01:03:00,
2013-03-29 21:13:00,40.0,21.0,-100.00,SSW,201,1.0,12.0,45,0.00,,,-99.99,,2013-03-30 01:13:00,
2013-03-29 21:22:00,41.0,23.0,-100.00,WSW,238,1.0,12.0,46,0.00,,,-99.99,,2013-03-30 01:22:00,
2013-03-29 21:33:00,40.0,23.0,-100.00,WSW,256,0.0,12.0,47,0.00,,,-99.99,,2013-03-30 01:33:00,
2013-03-29 21:43:00,40.0,23.0,-100.00,WSW,240,0.0,12.0,49,0.00,,,-99.99,,2013-03-30 01:43:00,
2013-03-29 21:52:00,40.0,23.0,-100.00,WSW,252,1.0,12.0,49,0.00,,,-99.99,,2013-03-30 01:52:00,
2013-03-29 22:03:00,39.0,21.0,-100.00,WSW,248,1.0,12.0,47,0.00,,,-99.99,,2013-03-30 02:03:00,
2013-03-29 22:13:00,39.0,23.0,-100.00,SSW,199,0.0,12.0,50,0.00,,,-99.99,,2013-03-30 02:13:00,
2013-03-29 22:22:00,40.0,23.0,-100.00,SSW,208,0.0,12.0,50,0.00,,,-99.99,,2013-03-30 02:22:00,
2013-03-29 22:33:00,38.0,23.0,-100.00,SW,217,1.0,12.0,50,0.00,,,-99.99,,2013-03-30 02:33:00,
2013-03-29 22:43:00,39.0,21.0,-100.00,South,186,1.0,12.0,49,0.00,,,-99.99,,2013-03-30 02:43:00,
2013-03-29 22:52:00,39.0,23.0,-100.00,South,190,1.0,12.0,51,0.00,,,-99.99,,2013-03-30 02:52:00,
2013-03-29 23:03:00,39.0,23.0,-100.00,SSW,194,1.0,12.0,50,0.00,,,-99.99,,2013-03-30 03:03:00,
2013-03-29 23:12:00,39.0,23.0,-100.00,South,184,1.0,12.0,51,0.00,,,-99.99,,2013-03-30 03:12:00,
2013-03-29 23:22:00,40.0,25.0,-100.00,South,170,1.0,12.0,51,0.00,,,-99.99,,2013-03-30 03:22:00,
2013-03-29 23:33:00,39.0,25.0,-100.00,SSE,153,1.0,12.0,53,0.00,,,-99.99,,2013-03-30 03:33:00,
2013-03-29 23:43:00,39.0,25.0,-100.00,South,173,1.0,12.0,54,0.00,,,-99.99,,2013-03-30 03:43:00,
2013-03-29 23:53:00,38.0,23.0,-100.00,SE,146,1.0,12.0,53,0.00,,,-99.99,,2013-03-30 03:53:00,